createdAt,value
2023-02-19T00:01:10.512Z,15.55
2023-02-19T00:03:38.219Z,14.27
2023-02-19T00:06:06.916Z,12.40
2023-02-19T00:08:35.127Z,11.30
2023-02-19T00:11:07.600Z,11.70
2023-02-19T00:13:38.507Z,11.77
2023-02-19T00:16:15.132Z,11.35
2023-02-19T00:18:43.032Z,9.77
2023-02-19T00:21:10.323Z,10.27
2023-02-19T00:23:37.577Z,7.57
2023-02-19T00:26:17.644Z,7.50
2023-02-19T00:28:46.955Z,5.47
2023-02-19T00:31:18.690Z,6.10
2023-02-19T00:33:47.087Z,6.97
2023-02-19T00:36:14.760Z,4.78
2023-02-19T00:38:42.637Z,5.37
2023-02-19T00:41:19.317Z,4.72
2023-02-19T00:44:03.984Z,3.92
2023-02-19T00:46:59.946Z,3.78
2023-02-19T00:49:26.833Z,3.20
2023-02-19T00:51:53.821Z,2.85
2023-02-19T00:54:22.717Z,2.83
2023-02-19T00:56:49.938Z,2.70
2023-02-19T00:59:17.063Z,2.40
2023-02-19T01:01:47.126Z,2.22
2023-02-19T01:04:14.091Z,2.15
2023-02-19T01:06:41.395Z,2.10
2023-02-19T01:09:08.426Z,1.90
2023-02-19T01:11:35.472Z,1.90
2023-02-19T01:14:03.723Z,2.05
2023-02-19T01:16:31.150Z,1.77
2023-02-19T01:18:58.619Z,1.70
2023-02-19T01:21:26.659Z,1.60
2023-02-19T01:23:54.007Z,1.80
2023-02-19T01:26:22.772Z,1.52
2023-02-19T01:28:49.869Z,1.50
2023-02-19T01:31:19.861Z,1.60
2023-02-19T01:33:48.234Z,1.60
2023-02-19T01:36:16.193Z,1.50
2023-02-19T01:38:43.670Z,1.40
2023-02-19T01:41:13.495Z,1.58
2023-02-19T01:43:58.928Z,1.58
2023-02-19T01:46:27.636Z,1.23
2023-02-19T01:48:55.098Z,1.33
2023-02-19T01:51:22.571Z,1.35
2023-02-19T01:53:53.595Z,1.60
2023-02-19T01:56:20.994Z,1.40
2023-02-19T01:58:47.992Z,1.40
2023-02-19T02:01:15.163Z,1.50
2023-02-19T02:03:43.564Z,1.20
2023-02-19T02:06:22.502Z,1.42
2023-02-19T02:09:13.934Z,1.25
2023-02-19T02:11:44.107Z,1.20
2023-02-19T02:14:11.045Z,1.40
2023-02-19T02:17:11.912Z,1.25
2023-02-19T02:19:47.608Z,1.30
2023-02-19T02:22:33.098Z,1.23
2023-02-19T02:25:18.619Z,1.40
2023-02-19T02:28:07.454Z,1.30
2023-02-19T02:30:42.087Z,1.30
2023-02-19T02:33:21.680Z,1.40
2023-02-19T02:35:57.031Z,1.50
2023-02-19T02:38:26.292Z,1.50
2023-02-19T02:40:54.556Z,1.50
2023-02-19T02:43:21.507Z,1.77
2023-02-19T02:45:48.651Z,1.83
2023-02-19T02:48:35.488Z,1.95
2023-02-19T02:51:05.398Z,2.12
2023-02-19T02:54:00.662Z,2.25
2023-02-19T02:56:27.573Z,2.08
2023-02-19T02:58:56.138Z,2.25
2023-02-19T03:01:48.107Z,2.15
2023-02-19T03:04:58.536Z,1.90
2023-02-19T03:07:27.386Z,2.20
2023-02-19T03:09:54.715Z,2.05
2023-02-19T03:12:41.201Z,2.20
2023-02-19T03:15:28.626Z,2.15
2023-02-19T03:18:18.071Z,1.70
2023-02-19T03:20:48.387Z,12.82
2023-02-19T03:23:17.993Z,14.80
2023-02-19T03:26:03.243Z,14.75
2023-02-19T03:28:51.995Z,15.30
2023-02-19T03:31:21.902Z,15.93
2023-02-19T03:33:54.645Z,15.45
2023-02-19T03:36:26.133Z,13.77
2023-02-19T03:39:16.715Z,13.30
2023-02-19T03:41:49.833Z,13.75
2023-02-19T03:44:37.405Z,16.02
2023-02-19T03:47:20.072Z,17.35
2023-02-19T03:49:57.083Z,17.73
2023-02-19T03:52:42.274Z,18.25
2023-02-19T03:55:13.989Z,16.60
2023-02-19T03:57:52.134Z,17.80
2023-02-19T04:00:41.013Z,18.48
2023-02-19T04:03:29.196Z,18.12
2023-02-19T04:06:01.733Z,17.17
2023-02-19T04:08:29.544Z,18.33
2023-02-19T04:10:58.809Z,19.55
2023-02-19T04:13:46.891Z,17.95
2023-02-19T04:16:19.650Z,17.87
2023-02-19T04:18:49.355Z,18.58
2023-02-19T04:21:16.832Z,18.52
2023-02-19T04:23:45.084Z,18.23
2023-02-19T04:26:12.956Z,19.23
2023-02-19T04:28:40.521Z,18.02
2023-02-19T04:31:07.680Z,18.87
2023-02-19T04:33:34.869Z,17.08
2023-02-19T04:36:01.797Z,17.67
2023-02-19T04:38:28.702Z,18.37
2023-02-19T04:40:55.617Z,18.20
2023-02-19T04:43:22.488Z,18.17
2023-02-19T04:45:49.545Z,18.00
2023-02-19T04:48:16.426Z,17.80
2023-02-19T04:50:43.353Z,18.52
2023-02-19T04:53:10.238Z,18.35
2023-02-19T04:55:38.652Z,20.45
2023-02-19T04:58:05.604Z,20.17
2023-02-19T05:00:34.193Z,19.70
2023-02-19T05:03:01.572Z,20.05
2023-02-19T05:05:28.471Z,20.95
2023-02-19T05:07:55.413Z,19.75
2023-02-19T05:10:22.311Z,20.08
2023-02-19T05:12:49.231Z,19.83
2023-02-19T05:15:16.144Z,19.73
2023-02-19T05:17:43.103Z,19.60
2023-02-19T05:20:10.200Z,21.42
2023-02-19T05:22:37.042Z,19.62
2023-02-19T05:27:32.021Z,20.25
2023-02-19T05:29:59.083Z,19.85
2023-02-19T05:32:26.033Z,19.65
2023-02-19T05:34:52.942Z,18.40
2023-02-19T05:37:19.901Z,19.90
2023-02-19T05:39:46.724Z,19.42
2023-02-19T05:44:40.908Z,19.35
2023-02-19T05:47:07.808Z,19.25
2023-02-19T05:49:34.779Z,19.27
2023-02-19T05:52:01.711Z,18.48
2023-02-19T05:54:29.682Z,19.52
2023-02-19T05:56:56.768Z,19.20
2023-02-19T05:59:25.949Z,19.17
2023-02-19T06:01:54.202Z,19.52
2023-02-19T06:04:21.145Z,20.02
2023-02-19T06:06:48.573Z,18.98
2023-02-19T06:09:15.523Z,19.05
2023-02-19T06:11:43.742Z,18.33
2023-02-19T06:14:13.536Z,18.58
2023-02-19T06:16:40.492Z,20.35
2023-02-19T06:19:07.410Z,20.05
2023-02-19T06:21:34.618Z,20.02
2023-02-19T06:24:07.330Z,20.25
2023-02-19T06:26:34.193Z,20.20
2023-02-19T06:31:27.935Z,20.00
2023-02-19T06:33:55.508Z,19.95
2023-02-19T06:36:22.814Z,19.25
2023-02-19T06:38:49.903Z,18.37
2023-02-19T06:41:17.007Z,20.30
2023-02-19T06:43:43.979Z,17.58
2023-02-19T06:46:12.038Z,17.95
2023-02-19T06:48:40.108Z,17.05
2023-02-19T06:51:06.997Z,17.98
2023-02-19T06:53:33.949Z,17.52
2023-02-19T06:56:06.721Z,17.12
2023-02-19T06:58:34.312Z,17.87
2023-02-19T07:01:01.394Z,16.55
2023-02-19T07:03:28.348Z,17.15
2023-02-19T07:05:55.285Z,17.17
2023-02-19T07:08:22.248Z,16.83
2023-02-19T07:10:56.694Z,18.50
2023-02-19T07:13:24.727Z,16.80
2023-02-19T07:15:52.296Z,17.73
2023-02-19T07:18:19.310Z,17.75
2023-02-19T07:20:46.190Z,17.90
2023-02-19T07:23:13.158Z,17.45
2023-02-19T07:25:40.377Z,17.65
2023-02-19T07:28:07.429Z,17.55
2023-02-19T07:30:34.404Z,17.70
2023-02-19T07:33:01.636Z,17.60
2023-02-19T07:35:28.660Z,19.30
2023-02-19T07:37:55.548Z,17.98
2023-02-19T07:40:22.447Z,18.58
2023-02-19T07:42:49.330Z,18.02
2023-02-19T07:45:16.339Z,18.08
2023-02-19T07:47:43.677Z,18.27
2023-02-19T07:50:13.007Z,19.23
2023-02-19T07:52:40.748Z,18.48
2023-02-19T07:57:34.419Z,17.42
2023-02-19T08:02:46.449Z,19.15
2023-02-19T08:05:14.028Z,19.27
2023-02-19T08:07:40.930Z,19.87
2023-02-19T08:10:26.742Z,18.45
2023-02-19T08:13:16.873Z,18.33
2023-02-19T08:15:44.055Z,18.75
2023-02-19T08:18:11.636Z,18.48
2023-02-19T08:23:06.261Z,17.98
2023-02-19T08:25:33.545Z,19.20
2023-02-19T08:28:00.842Z,18.60
2023-02-19T08:30:29.149Z,17.87
2023-02-19T08:32:56.294Z,18.83
2023-02-19T08:35:23.173Z,19.45
2023-02-19T08:37:50.134Z,17.90
2023-02-19T08:40:17.548Z,18.12
2023-02-19T08:42:44.416Z,18.05
2023-02-19T08:45:11.281Z,18.02
2023-02-19T08:47:38.771Z,17.37
2023-02-19T08:50:07.016Z,18.55
2023-02-19T08:52:34.297Z,18.62
2023-02-19T08:55:02.503Z,17.60
2023-02-19T08:57:29.669Z,18.45
2023-02-19T08:59:57.362Z,19.10
2023-02-19T09:02:25.191Z,19.48
2023-02-19T09:04:52.259Z,19.10
2023-02-19T09:07:19.806Z,18.55
2023-02-19T09:09:46.667Z,18.37
2023-02-19T09:12:13.644Z,17.92
2023-02-19T09:14:40.691Z,20.27
2023-02-19T09:17:08.493Z,18.37
2023-02-19T09:19:35.794Z,19.10
2023-02-19T09:22:03.530Z,18.37
2023-02-19T09:24:31.012Z,17.75
2023-02-19T09:26:58.065Z,18.15
2023-02-19T09:29:26.177Z,16.87
2023-02-19T09:31:59.576Z,17.87
2023-02-19T09:34:27.813Z,17.45
2023-02-19T09:36:55.266Z,18.37
2023-02-19T09:39:22.458Z,17.87
2023-02-19T09:41:52.476Z,17.70
2023-02-19T09:44:36.022Z,17.12
2023-02-19T09:47:09.592Z,17.05
2023-02-19T09:49:41.005Z,16.80
2023-02-19T09:52:12.609Z,16.98
2023-02-19T09:54:39.916Z,17.15
2023-02-19T09:57:14.304Z,17.75
2023-02-19T09:59:45.953Z,17.92
2023-02-19T10:02:19.425Z,16.52
2023-02-19T10:04:47.781Z,18.33
2023-02-19T10:07:16.178Z,17.45
2023-02-19T10:09:46.025Z,16.33
2023-02-19T10:12:18.552Z,17.37
2023-02-19T10:14:51.693Z,17.45
2023-02-19T10:17:24.490Z,16.65
2023-02-19T10:19:52.302Z,17.23
2023-02-19T10:22:19.956Z,16.73
2023-02-19T10:24:51.897Z,16.87
2023-02-19T10:27:19.300Z,15.52
2023-02-19T10:29:48.267Z,16.50
2023-02-19T10:32:24.369Z,15.80
2023-02-19T10:35:26.551Z,14.87
2023-02-19T10:37:53.428Z,14.25
2023-02-19T10:40:22.899Z,14.87
2023-02-19T10:42:56.596Z,16.25
2023-02-19T10:45:26.665Z,15.05
2023-02-19T10:47:53.570Z,14.18
2023-02-19T10:50:30.490Z,15.65
2023-02-19T10:52:58.931Z,14.60
2023-02-19T10:55:29.111Z,16.23
2023-02-19T10:57:56.742Z,15.23
2023-02-19T11:00:27.568Z,15.65
2023-02-19T11:03:15.175Z,15.23
2023-02-19T11:05:51.924Z,15.30
2023-02-19T11:08:22.945Z,11.20
2023-02-19T11:10:50.169Z,11.93
2023-02-19T11:13:30.575Z,11.25
2023-02-19T11:15:57.699Z,11.60
2023-02-19T11:18:29.799Z,10.45
2023-02-19T11:21:05.033Z,11.10
2023-02-19T11:23:33.275Z,10.20
2023-02-19T11:26:04.364Z,10.25
2023-02-19T11:28:40.509Z,10.23
2023-02-19T11:31:16.446Z,10.73
2023-02-19T11:33:53.824Z,9.02
2023-02-19T11:38:50.435Z,8.88
2023-02-19T11:41:26.645Z,7.75
2023-02-19T11:44:05.698Z,6.30
2023-02-19T11:46:42.074Z,6.85
2023-02-19T11:49:26.429Z,6.18
2023-02-19T11:52:08.794Z,5.78
2023-02-19T11:54:48.815Z,6.55
2023-02-19T11:57:21.670Z,7.15
2023-02-19T11:59:56.195Z,6.25
2023-02-19T12:02:28.650Z,6.68
2023-02-19T12:05:12.029Z,6.00
2023-02-19T12:08:03.926Z,5.90
2023-02-19T12:10:36.702Z,4.97
2023-02-19T12:13:25.379Z,4.55
2023-02-19T12:16:25.789Z,4.20
2023-02-19T12:18:58.563Z,3.15
2023-02-19T12:21:25.358Z,2.50
2023-02-19T12:24:12.035Z,2.70
2023-02-19T12:27:00.375Z,2.83
2023-02-19T12:29:47.151Z,3.10
2023-02-19T12:32:26.118Z,2.95
2023-02-19T12:35:16.300Z,2.33
2023-02-19T12:38:04.779Z,2.30
2023-02-19T12:40:31.553Z,2.05
2023-02-19T12:45:39.258Z,2.97
2023-02-19T12:48:27.284Z,3.30
2023-02-19T12:50:58.161Z,3.05
2023-02-19T12:53:45.834Z,3.20
2023-02-19T12:56:21.480Z,3.15
2023-02-19T12:58:55.264Z,2.80
2023-02-19T13:01:32.970Z,7.20
2023-02-19T13:04:17.741Z,3.28
2023-02-19T13:07:13.499Z,2.50
2023-02-19T13:09:53.497Z,3.00
2023-02-19T13:12:25.334Z,2.65
2023-02-19T13:15:01.054Z,2.92
2023-02-19T13:17:47.137Z,2.80
2023-02-19T13:20:27.611Z,3.30
2023-02-19T13:23:33.497Z,2.80
2023-02-19T13:26:12.033Z,3.37
2023-02-19T13:29:07.809Z,2.90
2023-02-19T13:32:02.662Z,2.70
2023-02-19T13:35:04.753Z,2.65
2023-02-19T13:37:35.338Z,2.50
2023-02-19T13:40:31.808Z,2.50
2023-02-19T13:43:00.981Z,2.25
2023-02-19T13:45:36.789Z,1.60
2023-02-19T13:48:23.865Z,1.50
2023-02-19T13:51:13.624Z,1.70
2023-02-19T13:53:46.254Z,1.55
2023-02-19T13:56:34.458Z,2.05
2023-02-19T13:59:19.997Z,1.87
2023-02-19T14:01:49.744Z,1.37
2023-02-19T14:04:23.821Z,1.30
2023-02-19T14:07:06.141Z,1.58
2023-02-19T14:09:43.984Z,1.37
2023-02-19T14:12:10.837Z,1.40
2023-02-19T14:14:41.858Z,2.60
2023-02-19T14:17:08.694Z,1.48
2023-02-19T14:19:41.570Z,1.17
2023-02-19T14:23:03.553Z,0.70
2023-02-19T14:25:49.660Z,0.80
2023-02-19T14:28:30.162Z,0.30
2023-02-19T14:31:18.119Z,0.50
2023-02-19T14:33:49.062Z,0.52
2023-02-19T14:36:48.910Z,0.45
2023-02-19T14:39:15.837Z,0.50
2023-02-19T14:41:46.236Z,0.50
2023-02-19T14:44:18.604Z,0.57
2023-02-19T14:47:14.083Z,0.37
2023-02-19T14:49:51.796Z,0.37
2023-02-19T14:52:28.515Z,0.40
2023-02-19T14:54:59.132Z,0.43
2023-02-19T14:57:46.813Z,0.30
2023-02-19T15:00:22.391Z,0.40
2023-02-19T15:02:53.349Z,0.28
2023-02-19T15:05:31.414Z,0.32
2023-02-19T15:08:00.689Z,0.50
2023-02-19T15:10:29.112Z,0.40
2023-02-19T15:13:05.155Z,0.40
2023-02-19T15:15:35.615Z,0.40
2023-02-19T15:18:04.003Z,0.57
2023-02-19T15:20:36.407Z,0.52
2023-02-19T15:23:06.329Z,0.45
2023-02-19T15:25:43.359Z,0.50
2023-02-19T15:28:25.587Z,0.47
2023-02-19T15:31:07.837Z,0.50
2023-02-19T15:33:35.099Z,0.45
2023-02-19T15:36:05.637Z,0.40
2023-02-19T15:38:33.627Z,0.45
2023-02-19T15:41:01.457Z,0.52
2023-02-19T15:43:44.598Z,0.40
2023-02-19T15:46:22.073Z,0.40
2023-02-19T15:49:16.387Z,0.40
2023-02-19T15:51:57.027Z,0.37
2023-02-19T15:54:29.524Z,0.60
2023-02-19T15:57:00.512Z,0.65
2023-02-19T15:59:36.955Z,0.50
2023-02-19T16:02:04.574Z,0.73
2023-02-19T16:04:31.603Z,0.60
2023-02-19T16:07:01.308Z,0.70
2023-02-19T16:09:37.233Z,0.50
2023-02-19T16:12:20.372Z,0.65
2023-02-19T16:14:47.451Z,0.57
2023-02-19T16:17:18.321Z,0.70
2023-02-19T16:20:02.260Z,0.60
2023-02-19T16:22:31.348Z,0.70
2023-02-19T16:25:03.984Z,0.82
2023-02-19T16:27:38.776Z,0.60
2023-02-19T16:30:19.063Z,0.75
2023-02-19T16:32:47.041Z,0.90
2023-02-19T16:35:42.413Z,0.80
2023-02-19T16:38:27.327Z,0.80
2023-02-19T16:41:05.610Z,0.80
2023-02-19T16:43:41.023Z,0.75
2023-02-19T16:46:10.526Z,0.60
2023-02-19T16:48:37.659Z,0.60
2023-02-19T16:51:08.633Z,0.68
2023-02-19T16:53:35.749Z,0.50
2023-02-19T16:56:02.755Z,0.70
2023-02-19T16:58:29.667Z,0.70
2023-02-19T17:00:56.693Z,0.85
2023-02-19T17:03:25.083Z,0.60
2023-02-19T17:05:52.573Z,0.60
2023-02-19T17:08:37.830Z,0.70
2023-02-19T17:11:07.806Z,0.70
2023-02-19T17:13:34.791Z,0.40
2023-02-19T17:16:02.129Z,0.60
2023-02-19T17:18:29.493Z,0.60
2023-02-19T17:21:14.986Z,0.60
2023-02-19T17:23:42.036Z,0.60
2023-02-19T17:26:14.715Z,0.80
2023-02-19T17:28:41.632Z,0.50
2023-02-19T17:31:11.108Z,0.40
2023-02-19T17:33:38.816Z,0.60
2023-02-19T17:36:06.211Z,0.60
2023-02-19T17:38:33.081Z,0.70
2023-02-19T17:40:59.967Z,0.75
2023-02-19T17:43:26.838Z,0.60
2023-02-19T17:45:53.762Z,0.68
2023-02-19T17:48:20.630Z,0.55
2023-02-19T17:50:49.426Z,0.55
2023-02-19T17:53:16.487Z,0.70
2023-02-19T17:55:43.375Z,0.70
2023-02-19T17:58:10.383Z,0.80
2023-02-19T18:00:37.526Z,0.95
2023-02-19T18:03:04.994Z,0.80
2023-02-19T18:05:31.894Z,0.90
2023-02-19T18:07:58.928Z,0.90
2023-02-19T18:10:25.798Z,0.60
2023-02-19T18:12:52.880Z,0.70
2023-02-19T18:15:26.993Z,0.50
2023-02-19T18:17:54.844Z,0.75
2023-02-19T18:20:23.888Z,0.50
2023-02-19T18:22:51.191Z,0.60
2023-02-19T18:25:18.872Z,0.55
2023-02-19T18:27:45.789Z,1.50
2023-02-19T18:30:15.704Z,0.50
2023-02-19T18:32:42.808Z,0.43
2023-02-19T18:35:09.917Z,0.40
2023-02-19T18:37:36.978Z,0.40
2023-02-19T18:40:05.050Z,0.50
2023-02-19T18:42:31.976Z,0.28
2023-02-19T18:44:59.314Z,0.30
2023-02-19T18:47:26.812Z,0.47
2023-02-19T18:49:55.457Z,0.32
2023-02-19T18:52:26.590Z,0.50
2023-02-19T18:54:55.264Z,0.43
2023-02-19T18:57:23.419Z,0.40
2023-02-19T18:59:50.590Z,0.65
2023-02-19T19:02:18.167Z,0.40
2023-02-19T19:04:49.540Z,0.50
2023-02-19T19:07:16.541Z,0.60
2023-02-19T19:09:43.442Z,0.70
2023-02-19T19:12:10.326Z,0.62
2023-02-19T19:17:04.534Z,0.75
2023-02-19T19:19:31.585Z,1.08
2023-02-19T19:21:58.480Z,0.80
2023-02-19T19:24:25.583Z,1.00
2023-02-19T19:26:53.716Z,0.85
2023-02-19T19:29:22.244Z,1.10
2023-02-19T19:31:49.728Z,1.00
2023-02-19T19:34:17.218Z,1.00
2023-02-19T19:36:44.126Z,1.00
2023-02-19T19:39:11.018Z,1.08
2023-02-19T19:41:37.908Z,1.20
2023-02-19T19:44:05.961Z,1.10
2023-02-19T19:46:33.718Z,1.00
2023-02-19T19:49:02.509Z,1.15
2023-02-19T19:51:35.438Z,1.05
2023-02-19T19:54:04.233Z,1.10
2023-02-19T19:56:31.617Z,1.10
2023-02-19T19:58:58.519Z,1.27
2023-02-19T20:01:25.449Z,1.10
2023-02-19T20:03:52.387Z,1.40
2023-02-19T20:06:27.421Z,1.40
2023-02-19T20:08:54.729Z,1.60
2023-02-19T20:11:21.625Z,1.20
2023-02-19T20:13:48.609Z,1.58
2023-02-19T20:16:15.674Z,1.70
2023-02-19T20:18:42.584Z,1.70
2023-02-19T20:21:10.462Z,1.50
2023-02-19T20:23:40.553Z,1.80
2023-02-19T20:26:07.865Z,1.77
2023-02-19T20:28:34.697Z,2.10
2023-02-19T20:33:28.320Z,2.20
2023-02-19T20:35:57.119Z,2.53
2023-02-19T20:38:24.070Z,2.40
2023-02-19T20:40:51.105Z,2.62
2023-02-19T20:43:18.025Z,2.50
2023-02-19T20:45:46.643Z,2.25
2023-02-19T20:48:18.025Z,2.55
2023-02-19T20:50:44.916Z,2.30
2023-02-19T20:53:12.128Z,2.20
2023-02-19T20:55:39.179Z,2.17
2023-02-19T20:58:06.116Z,2.20
2023-02-19T21:00:32.966Z,2.40
2023-02-19T21:05:26.541Z,2.28
2023-02-19T21:07:53.459Z,2.58
2023-02-19T21:10:20.358Z,2.87
2023-02-19T21:12:47.237Z,2.00
2023-02-19T21:15:14.930Z,2.20
2023-02-19T21:17:45.046Z,2.37
2023-02-19T21:20:12.201Z,2.67
2023-02-19T21:22:39.078Z,2.33
2023-02-19T21:25:06.397Z,2.30
2023-02-19T21:27:33.260Z,3.28
2023-02-19T21:32:26.969Z,2.53
2023-02-19T21:34:53.990Z,2.62
2023-02-19T21:37:20.918Z,2.45
2023-02-19T21:39:47.808Z,2.95
2023-02-19T21:42:14.688Z,2.70
2023-02-19T21:44:43.074Z,2.90
2023-02-19T21:47:11.761Z,2.62
2023-02-19T21:49:38.771Z,2.67
2023-02-19T21:52:05.636Z,2.10
2023-02-19T21:54:32.532Z,2.42
2023-02-19T21:57:02.221Z,2.83
2023-02-19T21:59:29.109Z,2.50
2023-02-19T22:01:57.254Z,2.40
2023-02-19T22:04:27.512Z,2.35
2023-02-19T22:06:57.525Z,1.90
2023-02-19T22:09:24.470Z,2.28
2023-02-19T22:11:51.435Z,2.20
2023-02-19T22:14:18.388Z,2.17
2023-02-19T22:16:45.317Z,2.17
2023-02-19T22:19:12.999Z,1.80
2023-02-19T22:21:43.318Z,1.77
2023-02-19T22:24:15.144Z,2.17
2023-02-19T22:26:42.731Z,2.10
2023-02-19T22:29:11.518Z,1.73
2023-02-19T22:31:38.741Z,1.85
2023-02-19T22:34:05.794Z,1.75
2023-02-19T22:36:33.696Z,1.80
2023-02-19T22:39:01.575Z,2.05
2023-02-19T22:41:28.759Z,1.90
2023-02-19T22:43:56.470Z,2.10
2023-02-19T22:46:25.204Z,1.87
2023-02-19T22:48:52.062Z,2.10
2023-02-19T22:56:16.078Z,2.10
2023-02-19T22:58:43.633Z,2.05
2023-02-19T23:01:12.190Z,1.77
2023-02-19T23:03:50.018Z,1.62
2023-02-19T23:06:17.837Z,1.65
2023-02-19T23:08:44.824Z,2.15
2023-02-19T23:11:13.333Z,1.90
2023-02-19T23:13:43.086Z,2.35
2023-02-19T23:16:10.239Z,1.80
2023-02-19T23:18:37.346Z,1.90
2023-02-19T23:21:04.337Z,2.10
2023-02-19T23:23:31.239Z,2.00
2023-02-19T23:25:58.110Z,2.20
2023-02-19T23:28:25.051Z,2.00
2023-02-19T23:30:52.054Z,2.00
2023-02-19T23:33:18.955Z,2.25
2023-02-19T23:38:12.651Z,2.40
2023-02-19T23:40:39.551Z,2.00
2023-02-19T23:43:06.476Z,2.15
2023-02-19T23:45:33.370Z,2.00
2023-02-19T23:48:00.394Z,1.70
2023-02-19T23:50:27.277Z,1.75
2023-02-19T23:52:56.472Z,1.65
2023-02-19T23:55:23.518Z,2.10
2023-02-19T23:57:52.180Z,1.55
